METAR Data
IDs: Format: Raw Decoded Include TAF

Data at: 1710 UTC 03 Jun 2020

KEZZ 031655Z AUTO 23012KT 10SM SCT110 29/21 A2987 RMK AO2 T02940213
KEZZ 031635Z AUTO 22009KT 10SM SCT100 29/21 A2987 RMK AO2 LTG DSNT W T02900209
KEZZ 031615Z AUTO 25009KT 10SM CLR 28/21 A2988 RMK AO2 T02800207
KEZZ 031555Z AUTO 23014KT 10SM CLR 28/21 A2988 RMK AO2 T02790207
KEZZ 031535Z AUTO 23013KT 10SM CLR 28/21 A2988 RMK AO2 T02830210
KEZZ 031515Z AUTO 23014G18KT 10SM CLR 28/21 A2987 RMK AO2 T02790208
KEZZ 031455Z AUTO 23015G18KT 10SM CLR 27/21 A2987 RMK AO2 P0001 T02700207 60001
KEZZ 031435Z AUTO 25014G17KT 10SM CLR 27/21 A2988 RMK AO2 P0001 T02650207
KEZZ 031415Z AUTO 25014G19KT 10SM CLR 26/21 A2990 RMK AO2 P0001 T02610209
KEZZ 031355Z AUTO 24014KT 10SM SCT080 26/21 A2991 RMK AO2 T02550208
KEZZ 031335Z AUTO 25012KT 10SM SCT080 25/21 A2991 RMK AO2 T02490208
KEZZ 031315Z AUTO 25012KT 10SM CLR 25/21 A2991 RMK AO2 T02450207
KEZZ 031255Z AUTO 24012KT 10SM CLR 24/21 A2991 RMK AO2 LTG DSNT NE T02380205
KEZZ 031235Z AUTO 23013KT 10SM CLR 24/21 A2989 RMK AO2 T02370206
KEZZ 031215Z AUTO 23009KT 10SM CLR 23/21 A2989 RMK AO2 T02310205
KEZZ 031155Z AUTO 22013KT 10SM CLR 23/20 A2988 RMK AO2 LTG DSNT N T02280205 10230 20220
KEZZ 031135Z AUTO 22013G18KT 10SM CLR 22/20 A2987 RMK AO2 T02240204
KEZZ 031115Z AUTO 22012KT 10SM CLR 22/20 A2987 RMK AO2 T02220203
KEZZ 031055Z AUTO 22012KT 10SM CLR 22/20 A2987 RMK AO2 LTG DSNT N T02200202
KEZZ 031035Z AUTO 22011KT 10SM CLR 22/20 A2988 RMK AO2 LTG DSNT N T02210202
KEZZ 031015Z AUTO 22011KT 10SM CLR 22/20 A2988 RMK AO2 T02220202
KEZZ 030955Z AUTO 22010KT 10SM CLR 22/20 A2989 RMK AO2 T02230202
KEZZ 030935Z AUTO 22010KT 10SM CLR 22/20 A2989 RMK AO2 T02240202
KEZZ 030915Z AUTO 22010KT 10SM CLR 23/20 A2989 RMK AO2 LTG DSNT N T02260202
KEZZ 030855Z AUTO 22011G16KT 10SM CLR 23/20 A2990 RMK AO2 LTG DSNT N T02270202
KEZZ 030835Z AUTO 22010KT 10SM CLR 23/20 A2991 RMK AO2 LTG DSNT NE T02290202
KEZZ 030815Z AUTO 22011KT 160V260 10SM CLR 23/20 A2991 RMK AO2 T02290201
KEZZ 030755Z AUTO 22011KT 10SM CLR 23/20 A2992 RMK AO2 T02290200
KEZZ 030735Z AUTO 22010KT 10SM CLR 23/20 A2992 RMK AO2 T02270197
KEZZ 030715Z AUTO 22010KT 10SM CLR 23/20 A2993 RMK AO2 T02270196
KEZZ 030655Z AUTO 21009KT 10SM CLR 23/19 A2993 RMK AO2 T02270194
KEZZ 030635Z AUTO 20010KT 10SM CLR 23/19 A2993 RMK AO2 T02270192
KEZZ 030615Z AUTO 22010KT 10SM CLR 23/19 A2993 RMK AO2 T02280191
KEZZ 030555Z AUTO 20010KT 10SM CLR 23/19 A2994 RMK AO2 T02290190 10297 20228
KEZZ 030535Z AUTO 20008KT 10SM CLR 23/19 A2994 RMK AO2 T02280189
KEZZ 030515Z AUTO 21008KT 10SM CLR 23/19 A2994 RMK AO2 T02310188
KEZZ 030455Z AUTO 22008KT 190V070 10SM CLR 23/19 A2994 RMK AO2 T02290187
KEZZ 030435Z AUTO 20007KT 10SM CLR 23/19 A2995 RMK AO2 T02320187
KEZZ 030415Z AUTO 19006KT 10SM CLR 23/19 A2995 RMK AO2 T02330187
KEZZ 030355Z AUTO 20008KT 10SM CLR 24/19 A2995 RMK AO2 T02390188
KEZZ 030335Z AUTO 22008KT 200V290 10SM CLR 24/19 A2995 RMK AO2 T02430188
KEZZ 030315Z AUTO 22008KT 200V350 10SM CLR 25/19 A2995 RMK AO2 T02450188
KEZZ 030255Z AUTO 20008KT 10SM CLR 25/19 A2993 RMK AO2 T02450189
KEZZ 030235Z AUTO 20007KT 150V330 10SM CLR 25/19 A2993 RMK AO2 T02490190
KEZZ 030215Z AUTO 20007KT 10SM CLR 26/19 A2992 RMK AO2 T02560189
KEZZ 030155Z AUTO 20009KT 10SM CLR 26/19 A2991 RMK AO2 T02620191
KEZZ 030135Z AUTO 21009KT 10SM CLR 27/19 A2992 RMK AO2 T02670194
KEZZ 030115Z AUTO 20009KT 10SM CLR 28/19 A2992 RMK AO2 T02770195
KEZZ 030055Z AUTO 21009KT 10SM CLR 28/20 A2992 RMK AO2 T02840196
KEZZ 030035Z AUTO 21010KT 10SM CLR 29/20 A2993 RMK AO2 T02900195
KEZZ 030015Z AUTO 20012KT 10SM CLR 29/19 A2992 RMK AO2 T02940192
KEZZ 022355Z AUTO 20011KT 10SM CLR 30/19 A2992 RMK AO2 T02970190 10322 20291 403220197
KEZZ 022335Z AUTO 20015KT 10SM CLR 30/19 A2992 RMK AO2 T03030187
KEZZ 022315Z AUTO 21014KT 10SM CLR 31/19 A2993 RMK AO2 T03080190
KEZZ 022255Z AUTO 22016G23KT 10SM CLR 31/17 A2993 RMK AO2 T03090174
KEZZ 022235Z AUTO 22019KT 10SM CLR 31/18 A2994 RMK AO2 T03120177
KEZZ 022215Z AUTO 20015G21KT 10SM CLR 31/17 A2994 RMK AO2 T03140174
KEZZ 022155Z AUTO 23014G18KT 10SM CLR 32/18 A2994 RMK AO2 T03190180
KEZZ 022135Z AUTO 22013G21KT 10SM CLR 32/18 A2995 RMK AO2 T03190181
KEZZ 022110Z AUTO 22013G17KT 10SM CLR 32/19 A2995 RMK AO2 T03180187
KEZZ 022055Z AUTO 21013KT 10SM CLR 32/19 A2995 RMK AO2 T03190188
KEZZ 022035Z AUTO 22016G23KT 10SM CLR 31/18 A2996 RMK AO2 T03130183
KEZZ 022015Z AUTO 22014KT 10SM CLR 31/18 A2996 RMK AO2 T03150183
KEZZ 021955Z AUTO 22017G23KT 10SM CLR 32/19 A2997 RMK AO2 T03150191
KEZZ 021935Z AUTO 21016KT 10SM CLR 31/19 A2997 RMK AO2 T03110187
KEZZ 021915Z AUTO 23016G22KT 10SM CLR 31/19 A2997 RMK AO2 T03090190
KEZZ 021855Z AUTO 20015G23KT 10SM CLR 30/19 A2997 RMK AO2 T03020191
KEZZ 021835Z AUTO 21016KT 10SM CLR 30/19 A2998 RMK AO2 T03010194
KEZZ 021815Z AUTO 22017KT 10SM CLR 30/20 A2998 RMK AO2 T02970196
KEZZ 021755Z AUTO 19016G19KT 10SM CLR 29/20 A2998 RMK AO2 T02910195 10294 20203
KEZZ 021735Z AUTO 20013KT 10SM CLR 29/19 A2999 RMK AO2 T02860192
KEZZ 021715Z AUTO 21015G20KT 10SM CLR 28/19 A2999 RMK AO2 T02840192
KEZZ 021655Z AUTO 20012G18KT 10SM CLR 27/19 A2999 RMK AO2 T02750189
KEZZ 021635Z AUTO 21011KT 10SM CLR 28/19 A3000 RMK AO2 T02760189
KEZZ 021615Z AUTO 21011KT 10SM CLR 27/19 A3000 RMK AO2 T02740186
KEZZ 021555Z AUTO 23015KT 10SM CLR 27/18 A3001 RMK AO2 T02750184
KEZZ 021535Z AUTO 23014G18KT 10SM CLR 27/18 A3002 RMK AO2 T02690183
KEZZ 021515Z AUTO 22015KT 10SM CLR 26/18 A3002 RMK AO2 T02630180
KEZZ 021455Z AUTO 23016KT 10SM CLR 26/18 A3002 RMK AO2 T02570177
KEZZ 021435Z AUTO 23013G19KT 10SM CLR 25/17 A3003 RMK AO2 T02500175
KEZZ 021415Z AUTO 22018KT 10SM CLR 25/17 A3003 RMK AO2 T02450174
KEZZ 021355Z AUTO 23016KT 10SM CLR 24/17 A3003 RMK AO2 T02380170
KEZZ 021335Z AUTO 23015KT 10SM CLR 24/17 A3003 RMK AO2 T02360172
KEZZ 021315Z AUTO 22012G19KT 10SM CLR 23/17 A3003 RMK AO2 T02270171
KEZZ 021255Z AUTO 21014KT 10SM CLR 22/17 A3003 RMK AO2 T02180169
KEZZ 021235Z AUTO 21012KT 10SM CLR 21/17 A3003 RMK AO2 T02150169
KEZZ 021215Z AUTO 21009KT 10SM CLR 21/17 A3003 RMK AO2 T02080168
KEZZ 021155Z AUTO 22009KT 10SM CLR 20/16 A3003 RMK AO2 T02030165 10210 20197 70001
KEZZ 021135Z AUTO 22008KT 10SM CLR 20/16 A3002 RMK AO2 T02000163
KEZZ 021115Z AUTO 22010KT 10SM CLR 20/16 A3002 RMK AO2 T01990162
KEZZ 021055Z AUTO 21012KT 10SM CLR 20/16 A3001 RMK AO2 T01980161
KEZZ 021035Z AUTO 22011KT 10SM CLR 20/16 A3001 RMK AO2 T02010161
KEZZ 021015Z AUTO 22012KT 10SM CLR 20/16 A3001 RMK AO2 T02010161
KEZZ 020955Z AUTO 22011KT 10SM CLR 20/16 A3001 RMK AO2 T02020162
KEZZ 020935Z AUTO 22009KT 10SM CLR 20/16 A3001 RMK AO2 T02030162
KEZZ 020915Z AUTO 22011G16KT 10SM CLR 20/16 A3000 RMK AO2 T02040162
KEZZ 020855Z AUTO 23009KT 10SM CLR 20/16 A3001 RMK AO2 T02030161
KEZZ 020835Z AUTO 22010KT 10SM CLR 20/16 A3000 RMK AO2 T02040159
KEZZ 020815Z AUTO 21009KT 10SM CLR 20/16 A3001 RMK AO2 T02010157
KEZZ 020755Z AUTO 21010KT 10SM CLR 20/16 A3001 RMK AO2 T02030158
KEZZ 020735Z AUTO 21010KT 10SM CLR 20/16 A3001 RMK AO2 T02050157
KEZZ 020715Z AUTO 21010KT 10SM CLR 20/16 A3001 RMK AO2 T02030157
KEZZ 020655Z AUTO 21007KT 10SM CLR 21/16 A3002 RMK AO2 T02060157
KEZZ 020635Z AUTO 21010KT 10SM CLR 21/16 A3001 RMK AO2 T02080157
KEZZ 020615Z AUTO 21010KT 10SM CLR 21/16 A3002 RMK AO2 T02080157
KEZZ 020555Z AUTO 21009KT 10SM CLR 21/16 A3002 RMK AO2 T02090158 10280 20208
KEZZ 020535Z AUTO 21010KT 10SM CLR 21/16 A3002 RMK AO2 T02100158
KEZZ 020515Z AUTO 20009KT 10SM CLR 21/16 A3003 RMK AO2 T02100159